Time;durP1;ratioP1;P1;durP2;ratioP2;P2;SDS_P1;SDS_P2;PMS_P1;PMS_P2;Temp;Humidity;BMP_temperature;BMP_pressure;BME280_temperature;BME280_humidity;BME280_pressure;Samples;Min_cycle;Max_cycle;Signal;HPM_P1;HPM_P2
2024/04/08 00:00:24;;;;;;;6.78;2.10;;;;;;;;;;5022751;28;20054;-86
2024/04/08 00:02:50;;;;;;;5.65;2.17;;;;;;;;;;5026261;28;20060;-85
2024/04/08 00:05:20;;;;;;;5.43;2.10;;;;;;;;;;5027122;28;20432;-85
2024/04/08 00:07:47;;;;;;;5.50;2.05;;;;;;;;;;5042112;28;20475;-85
2024/04/08 00:10:13;;;;;;;8.88;2.47;;;;;;;;;;5023631;28;20049;-86
2024/04/08 00:12:40;;;;;;;11.18;3.00;;;;;;;;;;5029413;28;20060;-85
2024/04/08 00:15:10;;;;;;;3.72;2.20;;;;;;;;;;5035242;28;20058;-85
2024/04/08 00:17:37;;;;;;;8.45;3.75;;;;;;;;;;5025420;28;20049;-85
2024/04/08 00:20:04;;;;;;;9.52;3.85;;;;;;;;;;5043633;28;20053;-84
2024/04/08 00:22:30;;;;;;;9.45;4.32;;;;;;;;;;5018485;28;20050;-85
2024/04/08 00:24:56;;;;;;;15.05;6.82;;;;;;;;;;5039329;28;20053;-86
2024/04/08 00:27:23;;;;;;;19.35;8.45;;;;;;;;;;5029116;28;20447;-85
2024/04/08 00:29:49;;;;;;;19.10;8.82;;;;;;;;;;5021323;28;20056;-84
2024/04/08 00:32:15;;;;;;;21.15;11.18;;;;;;;;;;5021458;28;20045;-85
2024/04/08 00:34:42;;;;;;;16.58;9.23;;;;;;;;;;5028877;28;20522;-85
2024/04/08 00:37:08;;;;;;;24.40;10.18;;;;;;;;;;5038606;28;20057;-85
2024/04/08 00:39:35;;;;;;;21.98;9.85;;;;;;;;;;5030523;28;20061;-85
2024/04/08 00:42:02;;;;;;;14.85;8.93;;;;;;;;;;5025276;28;20059;-85
2024/04/08 00:44:31;;;;;;;17.30;8.88;;;;;;;;;;5024539;28;20057;-85
2024/04/08 00:46:59;;;;;;;17.33;6.45;;;;;;;;;;5023739;28;20079;-86
2024/04/08 00:49:25;;;;;;;18.42;5.80;;;;;;;;;;5027129;28;20512;-84
2024/04/08 00:51:52;;;;;;;13.40;4.60;;;;;;;;;;5019194;28;20415;-85
2024/04/08 00:54:19;;;;;;;11.88;3.63;;;;;;;;;;5026816;28;20049;-85
2024/04/08 00:56:45;;;;;;;9.00;3.08;;;;;;;;;;5022932;28;20049;-86
2024/04/08 00:59:13;;;;;;;6.88;2.78;;;;;;;;;;5034259;28;20050;-85
2024/04/08 01:01:40;;;;;;;8.73;4.18;;;;;;;;;;5029604;28;20045;-85
2024/04/08 01:04:07;;;;;;;9.90;3.90;;;;;;;;;;5040943;28;20065;-86
2024/04/08 01:06:33;;;;;;;8.15;2.92;;;;;;;;;;5028689;28;20107;-85
2024/04/08 01:08:59;;;;;;;6.95;3.05;;;;;;;;;;5031224;28;20054;-85
2024/04/08 01:11:26;;;;;;;6.35;2.67;;;;;;;;;;5046475;28;20053;-85
2024/04/08 01:13:52;;;;;;;6.20;2.90;;;;;;;;;;5039992;28;20045;-84
2024/04/08 01:16:19;;;;;;;5.80;2.47;;;;;;;;;;5031867;28;20046;-85
2024/04/08 01:18:45;;;;;;;7.28;2.60;;;;;;;;;;5035589;28;20050;-85
2024/04/08 01:21:11;;;;;;;6.40;3.03;;;;;;;;;;5034117;28;20045;-85
2024/04/08 01:23:38;;;;;;;5.43;2.20;;;;;;;;;;5026183;28;20056;-84
2024/04/08 01:26:04;;;;;;;6.43;2.38;;;;;;;;;;5022805;28;20045;-85
2024/04/08 01:28:31;;;;;;;5.78;2.67;;;;;;;;;;5026127;28;20064;-84
2024/04/08 01:31:00;;;;;;;9.48;2.30;;;;;;;;;;5034312;28;20058;-84
2024/04/08 01:33:29;;;;;;;8.02;2.60;;;;;;;;;;5042671;28;20644;-84
2024/04/08 01:35:59;;;;;;;4.60;2.75;;;;;;;;;;5017047;28;20431;-84
2024/04/08 01:38:26;;;;;;;10.38;3.45;;;;;;;;;;5034454;28;20054;-85
2024/04/08 01:40:53;;;;;;;11.52;2.83;;;;;;;;;;5044835;28;20049;-84
2024/04/08 01:43:19;;;;;;;7.95;3.00;;;;;;;;;;5040385;28;20061;-84
2024/04/08 01:45:46;;;;;;;7.10;2.97;;;;;;;;;;5026917;28;20146;-85
2024/04/08 01:48:12;;;;;;;12.48;3.25;;;;;;;;;;5043916;28;20057;-84
2024/04/08 01:50:38;;;;;;;5.63;3.10;;;;;;;;;;5026895;28;20053;-85
2024/04/08 01:53:05;;;;;;;7.32;2.70;;;;;;;;;;5027109;28;20062;-85
2024/04/08 01:55:32;;;;;;;9.27;2.90;;;;;;;;;;5033407;28;20408;-84
2024/04/08 01:57:58;;;;;;;5.43;2.55;;;;;;;;;;5035095;28;20096;-85
2024/04/08 02:00:24;;;;;;;11.25;2.80;;;;;;;;;;5018289;28;20057;-86
2024/04/08 02:02:51;;;;;;;11.48;3.13;;;;;;;;;;5032253;28;20061;-85
2024/04/08 02:05:18;;;;;;;5.70;2.53;;;;;;;;;;5036662;28;20062;-85
2024/04/08 02:07:45;;;;;;;12.77;2.90;;;;;;;;;;5016012;28;20061;-85
2024/04/08 02:10:11;;;;;;;4.97;2.42;;;;;;;;;;5017672;28;20060;-84
2024/04/08 02:12:38;;;;;;;8.13;2.53;;;;;;;;;;5042733;28;20045;-84
2024/04/08 02:15:04;;;;;;;6.57;2.38;;;;;;;;;;5017400;28;20060;-84
2024/04/08 02:17:31;;;;;;;3.45;2.47;;;;;;;;;;5024919;28;20052;-86
2024/04/08 02:19:57;;;;;;;5.18;2.50;;;;;;;;;;5017638;28;20049;-85
2024/04/08 02:22:23;;;;;;;4.03;2.15;;;;;;;;;;5017428;28;20057;-85
2024/04/08 02:24:53;;;;;;;11.57;2.40;;;;;;;;;;5014804;28;20065;-84
2024/04/08 02:27:19;;;;;;;10.48;2.42;;;;;;;;;;5018797;28;20503;-85
2024/04/08 02:29:46;;;;;;;6.82;2.10;;;;;;;;;;5046778;28;20049;-86
2024/04/08 02:32:12;;;;;;;10.75;2.00;;;;;;;;;;5022718;28;20409;-85
2024/04/08 02:34:40;;;;;;;5.90;2.40;;;;;;;;;;5027704;28;20041;-85
2024/04/08 02:37:06;;;;;;;8.88;2.50;;;;;;;;;;5026075;28;20068;-84
2024/04/08 02:39:32;;;;;;;10.25;2.70;;;;;;;;;;5020401;28;20064;-85
2024/04/08 02:41:59;;;;;;;7.75;2.17;;;;;;;;;;5028284;28;20053;-85
2024/04/08 02:44:25;;;;;;;7.60;2.60;;;;;;;;;;5020369;28;20084;-85
2024/04/08 02:46:51;;;;;;;7.03;2.22;;;;;;;;;;5026457;28;20127;-85
2024/04/08 02:49:19;;;;;;;6.50;2.42;;;;;;;;;;5023216;28;20048;-85
2024/04/08 02:51:45;;;;;;;6.68;2.70;;;;;;;;;;5022003;28;20053;-85
2024/04/08 02:54:11;;;;;;;11.40;3.30;;;;;;;;;;5034912;28;20046;-84
2024/04/08 02:56:38;;;;;;;7.95;2.85;;;;;;;;;;5018743;28;20049;-85
2024/04/08 02:59:04;;;;;;;7.07;2.40;;;;;;;;;;5027605;28;20054;-86
2024/04/08 03:01:30;;;;;;;4.85;2.67;;;;;;;;;;5026213;28;20459;-85
2024/04/08 03:03:56;;;;;;;6.05;2.53;;;;;;;;;;5019584;28;20107;-85
2024/04/08 03:06:23;;;;;;;8.18;3.03;;;;;;;;;;5039079;28;20061;-85
2024/04/08 03:08:49;;;;;;;5.78;2.60;;;;;;;;;;5042135;28;20057;-85
2024/04/08 03:11:15;;;;;;;8.63;2.58;;;;;;;;;;5024739;28;20050;-85
2024/04/08 03:13:42;;;;;;;8.02;3.13;;;;;;;;;;5023952;28;20057;-85
2024/04/08 03:16:08;;;;;;;8.85;3.08;;;;;;;;;;5024391;28;20050;-84
2024/04/08 03:18:34;;;;;;;8.02;3.22;;;;;;;;;;5025523;28;20045;-84
2024/04/08 03:21:04;;;;;;;9.43;3.58;;;;;;;;;;5025732;28;20054;-84
2024/04/08 03:23:31;;;;;;;8.05;3.35;;;;;;;;;;5040718;28;20048;-85
2024/04/08 03:25:57;;;;;;;11.45;4.10;;;;;;;;;;5017831;28;20057;-85
2024/04/08 03:28:24;;;;;;;7.40;3.65;;;;;;;;;;5041125;28;20045;-85
2024/04/08 03:30:50;;;;;;;13.48;3.50;;;;;;;;;;5016011;28;20061;-84
2024/04/08 03:33:16;;;;;;;15.40;2.85;;;;;;;;;;5040624;28;20068;-84
2024/04/08 03:35:43;;;;;;;10.98;3.05;;;;;;;;;;5014457;28;20050;-85
2024/04/08 03:38:09;;;;;;;7.30;3.13;;;;;;;;;;5019714;28;20053;-84
2024/04/08 03:40:35;;;;;;;8.70;2.10;;;;;;;;;;5029495;28;20052;-85
2024/04/08 03:43:02;;;;;;;12.63;2.38;;;;;;;;;;5022535;28;20075;-84
2024/04/08 03:45:28;;;;;;;13.02;2.47;;;;;;;;;;5022691;28;20107;-85
2024/04/08 03:47:54;;;;;;;10.63;2.40;;;;;;;;;;5017117;28;20511;-85
2024/04/08 03:50:21;;;;;;;7.57;2.28;;;;;;;;;;5014305;28;20088;-85
2024/04/08 03:52:48;;;;;;;10.27;2.15;;;;;;;;;;5022372;28;20053;-85
2024/04/08 03:55:14;;;;;;;4.15;2.35;;;;;;;;;;5040373;28;20057;-85
2024/04/08 03:57:40;;;;;;;9.18;2.50;;;;;;;;;;5015516;28;20050;-84
2024/04/08 04:00:07;;;;;;;9.30;2.55;;;;;;;;;;5027408;28;20049;-84
2024/04/08 04:02:33;;;;;;;10.32;2.28;;;;;;;;;;5038134;28;20049;-84
2024/04/08 04:04:59;;;;;;;6.45;2.50;;;;;;;;;;5022052;28;20495;-82
2024/04/08 04:07:26;;;;;;;14.68;2.67;;;;;;;;;;5022288;28;20049;-84
2024/04/08 04:09:52;;;;;;;5.80;2.20;;;;;;;;;;5039093;28;20056;-84
2024/04/08 04:12:18;;;;;;;7.38;2.40;;;;;;;;;;5039079;28;20053;-84
2024/04/08 04:14:44;;;;;;;13.10;2.90;;;;;;;;;;5046598;28;20041;-85
2024/04/08 04:17:11;;;;;;;10.77;2.60;;;;;;;;;;5038467;28;20041;-84
2024/04/08 04:19:37;;;;;;;18.90;2.70;;;;;;;;;;5046623;28;20056;-85
2024/04/08 04:22:03;;;;;;;7.68;2.30;;;;;;;;;;5021758;28;20041;-83
2024/04/08 04:24:29;;;;;;;7.03;1.88;;;;;;;;;;5028983;28;20534;-87
2024/04/08 04:26:56;;;;;;;9.55;2.55;;;;;;;;;;5022308;28;20061;-84
2024/04/08 04:29:22;;;;;;;11.15;2.60;;;;;;;;;;5021612;28;20061;-84
2024/04/08 04:31:48;;;;;;;7.68;3.10;;;;;;;;;;5021732;28;20049;-84
2024/04/08 04:34:14;;;;;;;8.07;2.63;;;;;;;;;;5021589;28;20053;-84
2024/04/08 04:36:41;;;;;;;11.15;2.28;;;;;;;;;;5021288;28;20423;-84
2024/04/08 04:39:09;;;;;;;13.85;2.65;;;;;;;;;;5021079;28;20058;-86
2024/04/08 04:41:35;;;;;;;12.57;2.58;;;;;;;;;;5029855;28;20500;-85
2024/04/08 04:44:02;;;;;;;19.77;2.78;;;;;;;;;;5038170;28;20049;-84
2024/04/08 04:46:28;;;;;;;7.57;2.60;;;;;;;;;;5021889;28;20057;-84
2024/04/08 04:48:54;;;;;;;15.15;3.30;;;;;;;;;;5024825;28;20058;-84
2024/04/08 04:51:21;;;;;;;10.02;2.08;;;;;;;;;;5027750;28;20060;-87
2024/04/08 04:53:47;;;;;;;13.20;2.80;;;;;;;;;;5047255;28;20053;-86
2024/04/08 04:56:13;;;;;;;19.40;2.90;;;;;;;;;;5031004;28;20053;-86
2024/04/08 04:58:40;;;;;;;16.63;3.47;;;;;;;;;;5023145;28;20096;-86
2024/04/08 05:01:06;;;;;;;16.77;2.78;;;;;;;;;;5024052;28;20041;-86
2024/04/08 05:03:32;;;;;;;9.43;2.50;;;;;;;;;;5021654;28;20104;-86
2024/04/08 05:06:10;;;;;;;13.15;2.50;;;;;;;;;;5030383;28;20057;-87
2024/04/08 05:08:36;;;;;;;10.63;3.30;;;;;;;;;;5031275;28;20064;-85
2024/04/08 05:11:02;;;;;;;9.02;2.50;;;;;;;;;;5032505;28;20518;-84
2024/04/08 05:13:29;;;;;;;10.90;2.80;;;;;;;;;;5040571;28;20419;-86
2024/04/08 05:15:59;;;;;;;17.00;3.28;;;;;;;;;;5018227;28;20416;-85
2024/04/08 05:18:25;;;;;;;11.52;3.55;;;;;;;;;;5018155;28;20052;-86
2024/04/08 05:20:52;;;;;;;17.15;5.70;;;;;;;;;;5017979;28;20060;-86
2024/04/08 05:23:20;;;;;;;18.55;3.42;;;;;;;;;;5026168;28;20045;-85
2024/04/08 05:25:47;;;;;;;13.73;3.35;;;;;;;;;;5026378;28;20107;-85
2024/04/08 05:28:13;;;;;;;14.50;3.63;;;;;;;;;;5023072;28;20045;-86
2024/04/08 05:30:41;;;;;;;21.58;3.78;;;;;;;;;;5019976;28;20054;-85
2024/04/08 05:33:08;;;;;;;13.13;3.42;;;;;;;;;;5026488;28;20061;-86
2024/04/08 05:35:35;;;;;;;15.95;3.08;;;;;;;;;;5017544;28;20053;-86
2024/04/08 05:38:01;;;;;;;34.85;4.65;;;;;;;;;;5041993;28;20041;-85
2024/04/08 05:40:28;;;;;;;12.50;2.10;;;;;;;;;;5017367;28;20103;-85
2024/04/08 05:42:54;;;;;;;7.68;2.40;;;;;;;;;;5017525;28;20056;-84
2024/04/08 05:45:21;;;;;;;19.48;3.80;;;;;;;;;;5018349;28;20041;-85
2024/04/08 05:47:54;;;;;;;10.65;2.90;;;;;;;;;;5026616;28;20053;-85
2024/04/08 05:50:23;;;;;;;10.85;2.60;;;;;;;;;;5018636;28;20420;-85
2024/04/08 05:52:50;;;;;;;10.45;2.28;;;;;;;;;;5019663;28;20046;-85
2024/04/08 05:55:17;;;;;;;11.35;2.72;;;;;;;;;;5035787;28;20431;-85
2024/04/08 05:57:43;;;;;;;37.38;3.58;;;;;;;;;;5035711;28;20045;-84
2024/04/08 06:00:15;;;;;;;13.85;2.53;;;;;;;;;;5029865;28;20086;-87
2024/04/08 06:02:42;;;;;;;17.10;2.88;;;;;;;;;;5019850;28;20053;-85
2024/04/08 06:05:09;;;;;;;8.10;2.00;;;;;;;;;;5037107;28;20463;-85
2024/04/08 06:07:36;;;;;;;15.93;2.70;;;;;;;;;;5019943;28;20057;-85
2024/04/08 06:10:04;;;;;;;11.95;2.63;;;;;;;;;;5026498;28;20128;-85
2024/04/08 06:12:30;;;;;;;6.22;2.28;;;;;;;;;;5042315;28;20049;-85
2024/04/08 06:14:56;;;;;;;11.55;2.38;;;;;;;;;;5018629;28;20057;-84
2024/04/08 06:17:23;;;;;;;11.43;2.40;;;;;;;;;;5025090;28;20053;-85
2024/04/08 06:19:49;;;;;;;11.80;2.40;;;;;;;;;;5021319;28;20103;-85
2024/04/08 06:22:15;;;;;;;11.45;2.35;;;;;;;;;;5018230;28;20107;-85
2024/04/08 06:24:42;;;;;;;14.55;2.30;;;;;;;;;;5017658;28;20049;-85
2024/04/08 06:27:08;;;;;;;12.63;2.22;;;;;;;;;;5017838;28;20057;-85
2024/04/08 06:29:34;;;;;;;18.77;3.28;;;;;;;;;;5018244;28;20053;-85
2024/04/08 06:32:01;;;;;;;9.48;1.98;;;;;;;;;;5018549;28;20099;-84
2024/04/08 06:34:27;;;;;;;12.45;2.42;;;;;;;;;;5026979;28;20057;-86
2024/04/08 06:36:55;;;;;;;14.77;2.88;;;;;;;;;;5017397;28;20416;-85
2024/04/08 06:39:22;;;;;;;9.80;2.20;;;;;;;;;;5018384;28;20049;-84
2024/04/08 06:41:48;;;;;;;8.93;2.75;;;;;;;;;;5042849;28;20408;-85
2024/04/08 06:44:15;;;;;;;21.63;2.95;;;;;;;;;;5026937;28;20052;-86
2024/04/08 06:46:41;;;;;;;15.02;2.83;;;;;;;;;;5025197;28;20105;-84
2024/04/08 06:49:09;;;;;;;13.38;2.30;;;;;;;;;;5018051;28;20060;-85
2024/04/08 06:51:35;;;;;;;12.68;1.98;;;;;;;;;;5033213;28;20065;-84
2024/04/08 06:54:02;;;;;;;10.10;2.38;;;;;;;;;;5033784;28;20049;-86
2024/04/08 06:56:28;;;;;;;13.20;2.78;;;;;;;;;;5017088;28;20053;-85
2024/04/08 06:58:54;;;;;;;14.77;2.33;;;;;;;;;;5042039;28;20052;-86
2024/04/08 07:01:21;;;;;;;7.88;2.33;;;;;;;;;;5016390;28;20046;-87
2024/04/08 07:03:47;;;;;;;10.50;2.58;;;;;;;;;;5041729;28;20066;-83
2024/04/08 07:06:13;;;;;;;13.15;2.30;;;;;;;;;;5022274;28;20049;-85
2024/04/08 07:08:40;;;;;;;9.70;2.00;;;;;;;;;;5015750;28;20049;-86
2024/04/08 07:11:06;;;;;;;8.65;2.17;;;;;;;;;;5036005;28;20094;-85
2024/04/08 07:13:32;;;;;;;11.18;2.53;;;;;;;;;;5036392;28;20061;-85
2024/04/08 07:15:59;;;;;;;12.02;2.25;;;;;;;;;;5026716;28;20053;-86
2024/04/08 07:18:25;;;;;;;9.02;2.42;;;;;;;;;;5037059;28;20049;-85
2024/04/08 07:20:51;;;;;;;10.27;2.60;;;;;;;;;;5031949;28;20053;-84
2024/04/08 07:23:18;;;;;;;9.48;2.00;;;;;;;;;;5041185;28;20060;-86
2024/04/08 07:25:46;;;;;;;19.92;2.97;;;;;;;;;;5014956;28;20060;-86
2024/04/08 07:28:12;;;;;;;20.27;2.67;;;;;;;;;;5020645;28;20053;-85
2024/04/08 07:30:38;;;;;;;9.55;2.00;;;;;;;;;;5023944;28;20061;-85
2024/04/08 07:33:05;;;;;;;13.23;2.53;;;;;;;;;;5012231;28;20108;-86
2024/04/08 07:35:32;;;;;;;14.07;2.50;;;;;;;;;;5035527;28;20057;-86
2024/04/08 07:37:59;;;;;;;14.80;2.63;;;;;;;;;;5031590;28;20049;-84
2024/04/08 07:40:25;;;;;;;9.30;2.10;;;;;;;;;;5025309;28;20045;-88
2024/04/08 07:42:51;;;;;;;12.23;2.22;;;;;;;;;;5023589;28;20053;-86
2024/04/08 07:45:18;;;;;;;15.63;2.47;;;;;;;;;;5016326;28;20046;-87
2024/04/08 07:47:45;;;;;;;8.73;1.95;;;;;;;;;;5033287;28;20076;-86
2024/04/08 07:50:11;;;;;;;8.82;1.73;;;;;;;;;;5051733;28;20075;-85
2024/04/08 07:52:39;;;;;;;10.20;2.25;;;;;;;;;;5024055;28;20053;-85
2024/04/08 07:55:06;;;;;;;9.30;2.42;;;;;;;;;;5019580;28;20057;-85
2024/04/08 07:57:32;;;;;;;7.60;2.00;;;;;;;;;;5019326;28;20046;-86
2024/04/08 07:59:59;;;;;;;9.90;2.22;;;;;;;;;;5023979;28;20168;-87
2024/04/08 08:02:27;;;;;;;12.20;2.15;;;;;;;;;;5024266;28;20050;-86
2024/04/08 08:04:53;;;;;;;9.32;2.00;;;;;;;;;;5014715;28;20528;-87
2024/04/08 08:07:20;;;;;;;9.73;2.00;;;;;;;;;;5024212;28;20049;-86
2024/04/08 08:09:46;;;;;;;10.88;2.25;;;;;;;;;;5032560;28;20067;-86
2024/04/08 08:12:13;;;;;;;9.10;1.98;;;;;;;;;;5043751;28;20054;-88
2024/04/08 08:14:39;;;;;;;10.00;2.13;;;;;;;;;;5026931;28;20404;-85
2024/04/08 08:17:06;;;;;;;6.82;1.92;;;;;;;;;;5021674;28;20046;-83
2024/04/08 08:19:32;;;;;;;11.70;2.15;;;;;;;;;;5044849;28;20072;-85
2024/04/08 08:21:58;;;;;;;8.38;2.05;;;;;;;;;;5024553;28;20520;-85
2024/04/08 08:24:25;;;;;;;8.15;1.80;;;;;;;;;;5016825;28;20054;-86
2024/04/08 08:26:52;;;;;;;8.85;1.88;;;;;;;;;;5013935;28;20065;-83
2024/04/08 08:29:20;;;;;;;9.00;1.73;;;;;;;;;;5013083;28;20057;-85
2024/04/08 08:31:46;;;;;;;10.73;1.80;;;;;;;;;;5031151;28;20068;-84
2024/04/08 08:34:12;;;;;;;10.25;2.22;;;;;;;;;;5015860;28;20086;-85
2024/04/08 08:36:39;;;;;;;7.53;1.58;;;;;;;;;;5023202;28;20111;-86
2024/04/08 08:39:05;;;;;;;9.65;1.70;;;;;;;;;;5015164;28;20041;-84
2024/04/08 08:41:33;;;;;;;8.15;1.95;;;;;;;;;;5025182;28;20049;-83
2024/04/08 08:44:02;;;;;;;12.23;2.30;;;;;;;;;;5023315;28;20050;-85
2024/04/08 08:46:28;;;;;;;9.73;1.83;;;;;;;;;;5039741;28;20068;-84
2024/04/08 08:48:59;;;;;;;7.45;1.77;;;;;;;;;;5017919;28;20054;-84
2024/04/08 08:51:26;;;;;;;10.35;2.08;;;;;;;;;;5023348;28;20053;-84
2024/04/08 08:53:54;;;;;;;33.55;2.95;;;;;;;;;;5029888;28;20053;-84
2024/04/08 08:56:21;;;;;;;10.93;1.65;;;;;;;;;;5025734;28;20052;-86
2024/04/08 08:58:52;;;;;;;9.95;1.92;;;;;;;;;;5039490;28;20511;-85
2024/04/08 09:01:20;;;;;;;12.43;2.15;;;;;;;;;;5017418;28;20061;-85
2024/04/08 09:03:46;;;;;;;12.88;1.90;;;;;;;;;;5009376;28;20050;-84
2024/04/08 09:06:16;;;;;;;7.85;1.83;;;;;;;;;;5031091;28;20050;-86
2024/04/08 09:10:47;;;;;;;8.48;1.80;;;;;;;;;;5472909;26;20337;-77
2024/04/08 09:13:22;;;;;;;9.32;2.00;;;;;;;;;;5465726;26;19999;-78
2024/04/08 09:15:51;;;;;;;11.05;1.85;;;;;;;;;;5431808;26;20000;-77
2024/04/08 09:18:21;;;;;;;6.22;1.80;;;;;;;;;;5435807;26;20080;-77
2024/04/08 09:20:51;;;;;;;9.10;1.83;;;;;;;;;;5436229;26;20011;-77
2024/04/08 09:23:18;;;;;;;8.90;2.05;;;;;;;;;;5436530;26;20004;-78
2024/04/08 09:25:46;;;;;;;6.03;2.00;;;;;;;;;;5434742;26;20335;-77
2024/04/08 09:28:16;;;;;;;20.08;2.58;;;;;;;;;;5435296;26;20051;-77
2024/04/08 09:30:44;;;;;;;12.90;2.13;;;;;;;;;;5436859;26;20493;-79
2024/04/08 09:33:13;;;;;;;17.42;2.55;;;;;;;;;;5435022;26;20019;-76
2024/04/08 09:35:41;;;;;;;17.48;1.90;;;;;;;;;;5436693;26;20021;-77
2024/04/08 09:38:11;;;;;;;12.93;2.20;;;;;;;;;;5434170;26;20011;-77
2024/04/08 09:40:39;;;;;;;12.00;2.50;;;;;;;;;;5435884;26;20036;-77
2024/04/08 09:43:08;;;;;;;7.30;1.75;;;;;;;;;;5434960;26;20011;-77
2024/04/08 09:45:40;;;;;;;17.30;2.17;;;;;;;;;;5433978;26;19995;-77
2024/04/08 09:48:10;;;;;;;12.07;2.60;;;;;;;;;;5435966;26;20007;-77
2024/04/08 09:50:41;;;;;;;12.35;2.22;;;;;;;;;;5436224;26;20077;-77
2024/04/08 09:53:09;;;;;;;9.30;1.90;;;;;;;;;;5435974;26;20393;-78
2024/04/08 09:55:41;;;;;;;11.88;2.58;;;;;;;;;;5434654;26;20007;-77
2024/04/08 09:58:16;;;;;;;13.32;2.65;;;;;;;;;;5435408;26;19999;-78
2024/04/08 10:00:45;;;;;;;12.30;2.40;;;;;;;;;;5435616;26;20358;-77
2024/04/08 10:03:15;;;;;;;15.95;2.65;;;;;;;;;;5435513;26;19999;-76
2024/04/08 10:05:43;;;;;;;13.15;2.33;;;;;;;;;;5434009;26;20003;-77
2024/04/08 10:08:11;;;;;;;13.63;2.20;;;;;;;;;;5435738;26;20010;-77
2024/04/08 10:10:39;;;;;;;9.25;2.40;;;;;;;;;;5434400;26;20011;-79
2024/04/08 10:13:08;;;;;;;9.63;2.10;;;;;;;;;;5436539;26;20004;-77
2024/04/08 10:15:36;;;;;;;12.50;3.00;;;;;;;;;;5433855;26;20007;-78
2024/04/08 10:18:04;;;;;;;7.68;2.35;;;;;;;;;;5435098;26;20014;-77
2024/04/08 10:20:32;;;;;;;10.13;2.38;;;;;;;;;;5427405;26;20472;-78
2024/04/08 10:22:59;;;;;;;16.00;2.28;;;;;;;;;;5419799;26;20004;-77
2024/04/08 10:25:43;;;;;;;25.92;3.58;;;;;;;;;;5418220;26;20044;-78
2024/04/08 10:28:10;;;;;;;;;;;;;;;;;;5421128;26;19995;-77
2024/04/08 10:30:39;;;;;;;19.63;3.50;;;;;;;;;;5420750;26;19952;-77
2024/04/08 10:33:07;;;;;;;14.75;2.63;;;;;;;;;;5419744;26;20527;-77
2024/04/08 10:35:36;;;;;;;11.27;2.58;;;;;;;;;;5420112;26;20004;-77
2024/04/08 10:38:04;;;;;;;21.17;3.28;;;;;;;;;;5419169;26;20006;-77
2024/04/08 10:40:38;;;;;;;24.13;3.08;;;;;;;;;;5420143;26;20004;-77
2024/04/08 10:43:06;;;;;;;12.13;2.83;;;;;;;;;;5364182;21;20021;-84
2024/04/08 10:45:34;;;;;;;15.95;2.67;;;;;;;;;;5315448;27;20396;-90
2024/04/08 10:48:02;;;;;;;21.35;3.03;;;;;;;;;;5315414;26;20377;-87
2024/04/08 10:50:33;;;;;;;13.35;2.50;;;;;;;;;;5314621;27;20001;-87
2024/04/08 10:53:02;;;;;;;16.27;3.10;;;;;;;;;;5313385;27;20342;-84
2024/04/08 10:55:30;;;;;;;14.98;3.22;;;;;;;;;;5315015;26;20048;-84
2024/04/08 10:57:59;;;;;;;22.13;3.80;;;;;;;;;;5315043;27;20438;-83
2024/04/08 11:00:27;;;;;;;15.10;2.72;;;;;;;;;;5314866;27;20333;-82
2024/04/08 11:02:56;;;;;;;18.63;2.88;;;;;;;;;;5314927;27;20450;-86
2024/04/08 11:05:25;;;;;;;17.70;3.22;;;;;;;;;;5318934;27;20442;-84
2024/04/08 11:07:53;;;;;;;26.92;3.15;;;;;;;;;;5313403;27;20342;-84
2024/04/08 11:10:22;;;;;;;13.75;2.83;;;;;;;;;;5313603;27;20327;-86
2024/04/08 11:12:50;;;;;;;16.27;2.78;;;;;;;;;;5313616;27;20017;-86
2024/04/08 11:15:18;;;;;;;22.75;3.83;;;;;;;;;;5315219;27;20330;-84
2024/04/08 11:17:46;;;;;;;24.85;3.78;;;;;;;;;;5313181;27;20345;-85
2024/04/08 11:20:14;;;;;;;21.65;3.75;;;;;;;;;;5313105;27;20346;-85
2024/04/08 11:22:42;;;;;;;21.88;3.42;;;;;;;;;;5314891;27;20006;-83
2024/04/08 11:25:15;;;;;;;19.23;3.58;;;;;;;;;;5314787;27;20476;-86
2024/04/08 11:27:43;;;;;;;19.40;3.70;;;;;;;;;;5315233;26;20450;-85
2024/04/08 11:30:15;;;;;;;21.00;3.05;;;;;;;;;;5313232;27;20466;-85
2024/04/08 11:32:43;;;;;;;24.95;3.70;;;;;;;;;;5315025;26;20446;-85
2024/04/08 11:35:12;;;;;;;16.70;3.47;;;;;;;;;;5314828;27;20438;-84
2024/04/08 11:37:40;;;;;;;19.13;4.43;;;;;;;;;;5312839;27;20342;-86
2024/04/08 11:40:12;;;;;;;29.38;3.97;;;;;;;;;;5313425;27;20346;-85
2024/04/08 11:42:40;;;;;;;18.33;3.35;;;;;;;;;;5312687;27;20330;-85
2024/04/08 11:45:08;;;;;;;28.05;4.10;;;;;;;;;;5314738;26;20359;-84
2024/04/08 11:47:37;;;;;;;15.75;3.92;;;;;;;;;;5312923;27;20446;-86
2024/04/08 11:50:07;;;;;;;23.40;3.70;;;;;;;;;;5313025;27;20354;-87
2024/04/08 11:52:35;;;;;;;26.10;3.47;;;;;;;;;;5313030;27;20330;-85
2024/04/08 11:55:04;;;;;;;23.83;3.10;;;;;;;;;;5313450;27;20438;-85
2024/04/08 11:57:33;;;;;;;18.58;3.03;;;;;;;;;;5314349;26;20331;-85
2024/04/08 12:00:01;;;;;;;19.02;3.78;;;;;;;;;;5314555;26;20430;-87
2024/04/08 12:02:29;;;;;;;26.05;3.50;;;;;;;;;;5314274;27;20333;-85
2024/04/08 12:04:57;;;;;;;19.30;3.33;;;;;;;;;;5314509;27;20465;-85
2024/04/08 12:07:25;;;;;;;43.10;4.40;;;;;;;;;;5312406;27;20362;-85
2024/04/08 12:09:53;;;;;;;21.23;3.60;;;;;;;;;;5313880;27;20362;-92
2024/04/08 12:12:21;;;;;;;21.05;3.50;;;;;;;;;;5314580;27;20343;-88
2024/04/08 12:14:49;;;;;;;29.85;3.80;;;;;;;;;;5313285;27;20319;-86
2024/04/08 12:17:18;;;;;;;17.08;3.13;;;;;;;;;;5313259;27;20593;-85
2024/04/08 12:19:48;;;;;;;14.57;2.85;;;;;;;;;;5314230;27;20327;-85
2024/04/08 12:22:17;;;;;;;19.23;3.35;;;;;;;;;;5317111;27;20333;-85
2024/04/08 12:24:45;;;;;;;21.77;3.40;;;;;;;;;;5312963;27;20332;-87
2024/04/08 12:27:13;;;;;;;23.95;2.97;;;;;;;;;;5314892;27;20358;-86
2024/04/08 12:29:41;;;;;;;23.10;3.15;;;;;;;;;;5315344;27;20357;-86
2024/04/08 12:32:11;;;;;;;26.13;3.45;;;;;;;;;;5314882;27;20330;-87
2024/04/08 12:34:39;;;;;;;19.15;3.90;;;;;;;;;;5312394;27;20329;-91
2024/04/08 12:37:07;;;;;;;26.10;3.30;;;;;;;;;;5312862;27;20434;-86
2024/04/08 12:39:35;;;;;;;19.13;3.33;;;;;;;;;;5312695;27;20355;-84
2024/04/08 12:42:03;;;;;;;21.17;3.22;;;;;;;;;;5312476;27;20008;-86
2024/04/08 12:44:31;;;;;;;13.27;2.65;;;;;;;;;;5312949;27;20338;-85
2024/04/08 12:46:59;;;;;;;14.75;2.92;;;;;;;;;;5313549;26;20338;-85
2024/04/08 12:49:27;;;;;;;21.25;3.28;;;;;;;;;;5312041;27;20461;-86
2024/04/08 12:51:55;;;;;;;25.83;3.58;;;;;;;;;;5313638;27;20326;-85
2024/04/08 12:54:23;;;;;;;23.13;3.85;;;;;;;;;;5314589;27;20465;-89
2024/04/08 12:56:51;;;;;;;26.85;3.63;;;;;;;;;;5312244;27;20416;-86
2024/04/08 12:59:19;;;;;;;30.73;3.50;;;;;;;;;;5312437;27;20331;-85
2024/04/08 13:01:47;;;;;;;21.67;3.70;;;;;;;;;;5314722;27;20457;-90
2024/04/08 13:04:15;;;;;;;16.80;3.22;;;;;;;;;;5312485;27;20457;-83
2024/04/08 13:06:43;;;;;;;23.05;3.55;;;;;;;;;;5311807;27;19998;-85
2024/04/08 13:09:12;;;;;;;25.88;3.97;;;;;;;;;;5311777;27;20442;-84
2024/04/08 13:11:40;;;;;;;16.52;3.15;;;;;;;;;;5313515;26;20439;-85
2024/04/08 13:14:08;;;;;;;17.75;2.88;;;;;;;;;;5311706;27;20338;-84
2024/04/08 13:16:35;;;;;;;11.43;2.80;;;;;;;;;;5312923;27;20338;-84
2024/04/08 13:19:04;;;;;;;15.63;3.20;;;;;;;;;;5311198;27;20330;-83
2024/04/08 13:21:32;;;;;;;16.15;3.45;;;;;;;;;;5312966;27;20406;-83
2024/04/08 13:24:00;;;;;;;17.35;3.30;;;;;;;;;;5313312;27;20464;-84
2024/04/08 13:26:31;;;;;;;32.53;4.68;;;;;;;;;;5311287;27;20453;-84
2024/04/08 13:29:01;;;;;;;27.63;3.80;;;;;;;;;;5313104;26;20343;-84
2024/04/08 13:31:28;;;;;;;23.65;3.58;;;;;;;;;;5311626;27;20319;-88
2024/04/08 13:33:57;;;;;;;19.45;3.00;;;;;;;;;;5312063;27;20315;-85
2024/04/08 13:36:26;;;;;;;16.75;3.03;;;;;;;;;;5311739;27;20013;-91
2024/04/08 13:38:53;;;;;;;24.17;3.20;;;;;;;;;;5314461;27;20338;-81
2024/04/08 13:41:21;;;;;;;24.17;3.10;;;;;;;;;;5318057;26;20453;-82
2024/04/08 13:43:49;;;;;;;16.88;3.22;;;;;;;;;;5345312;26;20341;-85
2024/04/08 13:46:17;;;;;;;24.48;2.95;;;;;;;;;;5347101;26;20333;-86
2024/04/08 13:48:45;;;;;;;20.83;3.50;;;;;;;;;;5345446;26;20476;-85
2024/04/08 13:51:13;;;;;;;24.40;3.97;;;;;;;;;;5345424;26;20444;-84
2024/04/08 13:53:41;;;;;;;23.52;3.13;;;;;;;;;;5347027;26;20461;-83
2024/04/08 13:56:09;;;;;;;27.90;3.15;;;;;;;;;;5348211;26;20350;-85
2024/04/08 13:58:37;;;;;;;18.25;3.45;;;;;;;;;;5348731;26;20330;-85
2024/04/08 14:01:05;;;;;;;14.23;3.05;;;;;;;;;;5349257;26;19997;-84
2024/04/08 14:03:34;;;;;;;18.77;4.15;;;;;;;;;;5350288;26;20337;-87
2024/04/08 14:06:03;;;;;;;22.15;3.40;;;;;;;;;;5348919;26;20332;-85
2024/04/08 14:08:31;;;;;;;19.63;3.08;;;;;;;;;;5348858;26;20074;-85
2024/04/08 14:10:59;;;;;;;22.02;2.85;;;;;;;;;;5348914;26;20029;-86
2024/04/08 14:13:27;;;;;;;17.95;2.45;;;;;;;;;;5348901;26;20413;-85
2024/04/08 14:15:55;;;;;;;18.75;3.35;;;;;;;;;;5350013;26;20341;-86
2024/04/08 14:18:23;;;;;;;22.45;3.38;;;;;;;;;;5348447;26;20011;-87
2024/04/08 14:20:52;;;;;;;11.05;2.60;;;;;;;;;;5350163;26;20066;-86
2024/04/08 14:23:20;;;;;;;11.27;2.15;;;;;;;;;;5349095;26;20453;-88
2024/04/08 14:25:48;;;;;;;15.77;3.15;;;;;;;;;;5350299;26;20317;-85
2024/04/08 14:28:16;;;;;;;16.55;2.70;;;;;;;;;;5350167;26;20445;-84
2024/04/08 14:30:44;;;;;;;17.98;3.13;;;;;;;;;;5348309;26;20460;-84
2024/04/08 14:33:12;;;;;;;15.00;3.08;;;;;;;;;;5348128;26;20464;-84
2024/04/08 14:35:41;;;;;;;17.67;3.00;;;;;;;;;;5349720;26;20448;-85